Time;durP1;ratioP1;P1;durP2;ratioP2;P2;SDS_P1;SDS_P2;PMS_P1;PMS_P2;Temp;Humidity;BMP_temperature;BMP_pressure;BME280_temperature;BME280_humidity;BME280_pressure;Samples;Min_cycle;Max_cycle;Signal;HPM_P1;HPM_P2
2023/04/23 00:03:49;;;;;;;60.60;40.20;;;10.50;99.90;;;;;;2610215;39;20982;-76
2023/04/23 00:13:36;;;;;;;64.97;38.77;;;10.40;99.90;;;;;;2609768;54;20391;-77
2023/04/23 00:19:24;;;;;;;64.60;39.77;;;10.20;99.90;;;;;;2609571;54;20403;-77
2023/04/23 00:25:11;;;;;;;62.30;39.43;;;10.20;99.90;;;;;;2608741;54;20162;-77
2023/04/23 00:30:59;;;;;;;65.30;38.40;;;10.30;99.90;;;;;;2608876;39;20719;-77
2023/04/23 00:36:47;;;;;;;58.77;39.20;;;10.10;99.90;;;;;;2610530;54;20158;-77
2023/04/23 00:42:36;;;;;;;63.20;39.73;;;10.20;99.90;;;;;;2609909;54;20155;-76
2023/04/23 00:48:24;;;;;;;66.37;39.30;;;10.20;99.90;;;;;;2608690;39;21104;-77
2023/04/23 00:54:13;;;;;;;61.60;39.70;;;10.20;99.90;;;;;;2609798;54;20391;-77
2023/04/23 01:00:02;;;;;;;63.40;40.60;;;10.00;99.90;;;;;;2609704;54;20397;-76
2023/04/23 01:05:50;;;;;;;64.67;40.80;;;10.00;99.90;;;;;;2609731;54;20438;-76
2023/04/23 01:09:06;;;;;;;63.90;40.43;;;10.00;99.90;;;;;;2609257;54;20423;-76
2023/04/23 01:11:32;;;;;;;59.87;38.87;;;10.10;99.90;;;;;;2609821;54;20426;-76
2023/04/23 01:17:20;;;;;;;61.20;39.60;;;10.00;99.90;;;;;;2609333;54;20391;-76
2023/04/23 01:23:08;;;;;;;60.77;40.47;;;10.00;99.90;;;;;;2609851;54;20397;-76
2023/04/23 01:28:56;;;;;;;57.90;37.90;;;9.90;99.90;;;;;;2607526;54;20214;-76
2023/04/23 01:34:46;;;;;;;63.47;38.87;;;10.00;99.90;;;;;;2609676;54;20143;-77
2023/04/23 01:40:34;;;;;;;53.30;33.60;;;10.00;99.90;;;;;;2609496;54;20359;-77
2023/04/23 01:46:22;;;;;;;52.57;35.13;;;9.90;99.90;;;;;;2609627;54;20395;-77
2023/04/23 01:52:10;;;;;;;50.63;33.20;;;9.80;99.90;;;;;;2609259;54;20677;-76
2023/04/23 01:57:57;;;;;;;44.60;30.57;;;9.70;99.90;;;;;;2611761;31;20606;-76
2023/04/23 02:03:46;;;;;;;46.20;32.30;;;9.60;99.90;;;;;;2611496;54;20687;-76
2023/04/23 02:13:36;;;;;;;45.50;29.43;;;9.40;99.90;;;;;;2609915;54;20349;-76
2023/04/23 02:19:24;;;;;;;44.27;31.43;;;9.10;99.90;;;;;;2611353;54;20406;-76
2023/04/23 02:25:16;;;;;;;45.17;31.57;;;9.20;99.90;;;;;;2610570;54;20138;-76
2023/04/23 02:31:04;;;;;;;46.23;30.20;;;9.20;99.90;;;;;;2609545;54;20416;-77
2023/04/23 02:36:52;;;;;;;42.27;29.80;;;9.00;99.90;;;;;;2609512;54;20142;-77
2023/04/23 02:42:39;;;;;;;44.80;30.80;;;8.90;99.90;;;;;;2607717;54;20150;-78
2023/04/23 02:48:28;;;;;;;47.73;31.53;;;8.90;99.90;;;;;;2607299;54;20138;-75
2023/04/23 02:54:16;;;;;;;46.73;31.03;;;8.70;99.90;;;;;;2608751;54;20375;-76
2023/04/23 03:00:06;;;;;;;45.43;31.13;;;8.40;99.90;;;;;;2609750;39;20993;-68
2023/04/23 03:05:54;;;;;;;43.77;31.87;;;8.40;99.90;;;;;;2609594;54;20395;-67
2023/04/23 03:09:06;;;;;;;47.80;31.80;;;8.30;99.90;;;;;;2609143;54;20395;-67
2023/04/23 03:11:32;;;;;;;44.37;30.70;;;8.30;99.90;;;;;;2609098;54;20249;-67
2023/04/23 03:17:20;;;;;;;50.37;34.30;;;8.30;99.90;;;;;;2609026;54;20418;-67
2023/04/23 03:23:08;;;;;;;49.00;31.80;;;8.60;99.90;;;;;;2609506;54;20156;-68
2023/04/23 03:28:55;;;;;;;55.53;35.57;;;8.70;99.90;;;;;;2612086;54;20161;-68
2023/04/23 03:34:43;;;;;;;57.47;36.13;;;8.70;99.90;;;;;;2609752;54;20129;-68
2023/04/23 03:40:31;;;;;;;51.97;35.57;;;8.60;99.90;;;;;;2609995;54;21198;-69
2023/04/23 03:46:18;;;;;;;58.03;35.70;;;8.40;99.90;;;;;;2609556;54;20641;-67
2023/04/23 03:52:06;;;;;;;51.20;34.00;;;8.60;99.90;;;;;;2608803;54;20134;-70
2023/04/23 03:57:54;;;;;;;60.87;34.27;;;8.70;99.90;;;;;;2609283;54;20186;-68
2023/04/23 04:03:42;;;;;;;59.63;35.17;;;8.80;99.90;;;;;;2609631;54;20141;-67
2023/04/23 04:13:38;;;;;;;53.90;35.13;;;8.90;99.90;;;;;;2608810;54;20374;-69
2023/04/23 04:19:26;;;;;;;57.67;36.97;;;9.00;99.90;;;;;;2609324;54;21347;-68
2023/04/23 04:25:13;;;;;;;52.70;35.30;;;8.90;99.90;;;;;;2609557;54;20130;-68
2023/04/23 04:31:05;;;;;;;48.63;32.87;;;8.80;99.90;;;;;;2610009;54;20134;-67
2023/04/23 04:36:53;;;;;;;50.83;33.20;;;8.80;99.90;;;;;;2610443;54;20395;-68
2023/04/23 04:42:41;;;;;;;54.10;33.20;;;8.80;99.90;;;;;;2611730;54;20973;-68
2023/04/23 04:48:29;;;;;;;49.00;33.60;;;8.80;99.90;;;;;;2609080;54;20123;-69
2023/04/23 04:54:17;;;;;;;47.17;30.43;;;8.80;99.90;;;;;;2609948;54;20130;-67
2023/04/23 05:00:21;;;;;;;42.20;29.20;;;9.10;99.90;;;;;;2609559;54;20157;-68
2023/04/23 05:06:09;;;;;;;47.13;30.53;;;9.20;99.90;;;;;;2610755;54;20402;-68
2023/04/23 05:09:07;;;;;;;41.03;28.90;;;9.40;99.90;;;;;;2610192;54;20391;-69
2023/04/23 05:11:34;;;;;;;49.80;32.73;;;9.50;99.90;;;;;;2613540;54;20167;-68
2023/04/23 05:17:22;;;;;;;46.40;28.53;;;9.80;99.90;;;;;;2614282;54;21004;-69
2023/04/23 05:23:10;;;;;;;45.50;30.07;;;10.10;99.90;;;;;;2614472;39;20642;-67
2023/04/23 05:28:57;;;;;;;38.53;29.00;;;11.10;99.90;;;;;;2610511;54;20423;-68
2023/04/23 05:34:46;;;;;;;31.10;25.70;;;11.70;99.90;;;;;;2606774;54;20183;-68
2023/04/23 05:40:33;;;;;;;32.67;22.70;;;12.10;99.90;;;;;;2609362;54;20408;-68
2023/04/23 05:46:21;;;;;;;24.40;21.00;;;12.60;99.90;;;;;;2609363;54;20145;-67
2023/04/23 05:52:09;;;;;;;20.93;18.63;;;12.90;99.90;;;;;;2610766;54;20150;-67
2023/04/23 05:57:57;;;;;;;20.13;17.60;;;12.90;99.90;;;;;;2612944;39;20552;-67
2023/04/23 06:03:47;;;;;;;18.07;16.17;;;12.10;99.90;;;;;;2613810;54;20152;-67
2023/04/23 06:13:39;;;;;;;21.50;17.47;;;12.00;99.90;;;;;;2613913;54;20431;-68
2023/04/23 06:19:27;;;;;;;17.97;16.07;;;12.20;99.90;;;;;;2611389;54;20391;-68
2023/04/23 06:25:14;;;;;;;16.77;15.07;;;12.20;99.90;;;;;;2613059;54;20208;-67
2023/04/23 06:31:04;;;;;;;16.23;14.60;;;12.40;99.90;;;;;;2613724;54;20660;-67
2023/04/23 06:36:52;;;;;;;17.60;13.87;;;12.50;99.90;;;;;;2612334;54;20507;-68
2023/04/23 06:42:39;;;;;;;15.23;13.63;;;12.50;99.90;;;;;;2613061;54;20157;-68
2023/04/23 06:48:27;;;;;;;15.20;13.60;;;12.70;99.90;;;;;;2611678;54;20138;-67
2023/04/23 06:54:15;;;;;;;13.07;11.70;;;12.90;99.90;;;;;;2613100;54;20142;-67
2023/04/23 07:00:07;;;;;;;12.97;11.83;;;13.50;99.90;;;;;;2614679;54;20122;-68
2023/04/23 07:05:54;;;;;;;13.53;11.80;;;13.50;99.90;;;;;;2613273;54;20422;-70
2023/04/23 07:09:06;;;;;;;14.50;13.00;;;13.80;99.90;;;;;;2611805;54;20411;-68
2023/04/23 07:11:33;;;;;;;15.10;13.60;;;13.90;99.90;;;;;;2611543;54;20753;-68
2023/04/23 07:17:21;;;;;;;14.13;11.77;;;14.20;99.90;;;;;;2613380;54;21441;-67
2023/04/23 07:23:10;;;;;;;11.57;10.47;;;14.20;99.90;;;;;;2611100;54;20158;-67
2023/04/23 07:28:57;;;;;;;13.70;12.30;;;14.60;99.90;;;;;;2613392;54;20473;-68
2023/04/23 07:34:45;;;;;;;12.63;11.50;;;15.80;99.90;;;;;;2613094;54;20162;-68
2023/04/23 07:40:33;;;;;;;12.47;11.47;;;16.20;99.90;;;;;;2613019;54;20134;-68
2023/04/23 07:46:20;;;;;;;13.10;11.73;;;16.60;99.90;;;;;;2613173;54;20131;-67
2023/04/23 07:52:08;;;;;;;10.80;9.80;;;16.40;99.90;;;;;;2612715;54;20143;-67
2023/04/23 07:57:56;;;;;;;11.07;10.00;;;17.10;99.90;;;;;;2613494;54;20787;-68
2023/04/23 08:03:44;;;;;;;10.97;10.10;;;17.10;99.90;;;;;;2612983;54;20127;-67
2023/04/23 08:13:37;;;;;;;11.70;10.47;;;18.10;99.90;;;;;;2611809;54;20384;-66
2023/04/23 08:19:30;;;;;;;10.70;9.60;;;18.10;95.30;;;;;;2611003;54;20431;-67
2023/04/23 08:25:19;;;;;;;9.40;8.50;;;18.00;93.50;;;;;;2612981;54;20403;-67
2023/04/23 08:31:07;;;;;;;11.20;10.20;;;17.90;96.80;;;;;;2610407;54;20441;-68
2023/04/23 08:36:54;;;;;;;8.53;7.73;;;18.10;94.70;;;;;;2612412;54;20170;-68
2023/04/23 08:49:17;;;;;;;8.93;8.03;;;18.10;64.30;;;;;;2613054;54;20443;-67
2023/04/23 08:55:10;;;;;;;9.13;8.33;;;19.10;64.30;;;;;;2612043;54;20379;-68
2023/04/23 09:00:58;;;;;;;9.03;8.33;;;19.10;53.90;;;;;;2613326;54;20403;-67
2023/04/23 09:06:45;;;;;;;9.00;8.30;;;18.30;53.60;;;;;;2611449;54;20170;-68
2023/04/23 09:15:55;;;;;;;8.60;7.80;;;19.40;49.30;;;;;;2609808;54;20395;-68
2023/04/23 09:21:46;;;;;;;8.10;7.50;;;19.20;38.50;;;;;;2611816;54;20138;-67
2023/04/23 09:27:37;;;;;;;9.53;8.70;;;18.30;47.50;;;;;;2613726;54;20465;-67
2023/04/23 09:33:27;;;;;;;9.03;8.23;;;18.40;47.00;;;;;;2613963;39;20853;-67
2023/04/23 09:39:20;;;;;;;9.20;8.30;;;17.40;50.10;;;;;;2612596;54;20916;-68
2023/04/23 09:45:13;;;;;;;11.63;10.77;;;17.20;54.30;;;;;;2617898;54;20410;-68
2023/04/23 09:51:01;;;;;;;10.60;9.40;;;17.80;57.00;;;;;;2615343;54;20258;-67
2023/04/23 09:56:50;;;;;;;11.70;9.77;;;19.10;46.20;;;;;;2614199;54;20154;-67
2023/04/23 10:02:38;;;;;;;9.83;9.13;;;19.20;30.00;;;;;;2612381;54;20366;-68
2023/04/23 10:08:27;;;;;;;9.27;8.50;;;19.50;35.50;;;;;;2613492;54;20398;-67
2023/04/23 10:14:14;;;;;;;9.53;8.93;;;19.60;29.80;;;;;;2613340;54;20981;-68
2023/04/23 10:20:04;;;;;;;9.37;8.47;;;19.00;27.60;;;;;;2612628;54;20166;-67
2023/04/23 10:25:55;;;;;;;9.50;8.90;;;18.80;33.00;;;;;;2612411;54;20530;-69
2023/04/23 10:31:44;;;;;;;9.33;8.63;;;18.80;27.80;;;;;;2617277;54;20482;-68
2023/04/23 10:37:33;;;;;;;9.30;8.70;;;18.60;28.60;;;;;;2617877;54;20430;-67
2023/04/23 10:43:22;;;;;;;9.50;8.90;;;18.90;23.70;;;;;;2617829;54;20371;-69
2023/04/23 10:49:09;;;;;;;8.13;7.73;;;18.40;27.80;;;;;;2613154;46;20826;-67
2023/04/23 10:55:00;;;;;;;9.93;9.20;;;18.30;25.90;;;;;;2610517;54;20214;-68
2023/04/23 11:00:49;;;;;;;11.77;10.77;;;18.60;27.50;;;;;;2614013;54;20398;-67
2023/04/23 11:06:46;;;;;;;9.80;9.20;;;18.10;27.30;;;;;;2613548;54;20359;-68
2023/04/23 11:12:34;;;;;;;10.40;9.60;;;18.00;32.70;;;;;;2609106;54;20402;-67
2023/04/23 11:18:23;;;;;;;8.93;8.40;;;17.50;39.40;;;;;;2609559;54;20487;-68
2023/04/23 11:24:10;;;;;;;9.30;8.50;;;17.90;43.00;;;;;;2608814;54;20621;-68
2023/04/23 11:29:58;;;;;;;9.13;8.43;;;17.50;58.40;;;;;;2613000;54;20130;-69
2023/04/23 11:35:46;;;;;;;12.40;7.40;;;17.10;64.40;;;;;;2613667;54;20166;-69
2023/04/23 11:41:34;;;;;;;6.57;6.17;;;16.10;91.90;;;;;;2614422;39;20815;-69
2023/04/23 11:47:25;;;;;;;5.10;4.50;;;14.10;99.90;;;;;;2612984;54;20147;-68
2023/04/23 11:53:13;;;;;;;6.77;3.17;;;14.70;99.90;;;;;;2614279;54;20387;-69
2023/04/23 11:59:04;;;;;;;3.93;3.63;;;14.50;99.90;;;;;;2612345;54;20438;-68
2023/04/23 12:04:53;;;;;;;4.13;3.73;;;15.10;99.90;;;;;;2611810;54;20415;-69
2023/04/23 12:10:48;;;;;;;6.30;4.60;;;15.90;99.90;;;;;;2612947;54;20359;-71
2023/04/23 12:16:40;;;;;;;4.73;4.43;;;16.90;99.90;;;;;;2612712;54;20945;-69
2023/04/23 12:22:28;;;;;;;5.90;5.50;;;18.10;99.90;;;;;;2612150;46;20402;-69
2023/04/23 12:28:22;;;;;;;6.33;5.83;;;18.90;66.40;;;;;;2609083;54;20175;-69
2023/04/23 12:34:13;;;;;;;6.47;6.07;;;19.30;80.40;;;;;;2609722;54;20496;-69
2023/04/23 12:43:57;;;;;;;7.67;7.17;;;19.30;21.30;;;;;;2608563;54;20367;-69
2023/04/23 12:49:48;;;;;;;8.00;7.60;;;19.50;9.80;;;;;;2608200;54;20463;-67
2023/04/23 12:55:38;;;;;;;8.30;7.87;;;20.20;8.40;;;;;;2608747;54;20351;-69
2023/04/23 13:01:26;;;;;;;9.70;8.90;;;20.80;4.20;;;;;;2613070;46;20395;-68
2023/04/23 13:07:14;;;;;;;9.70;9.00;;;20.70;1.20;;;;;;2610076;54;21077;-69
2023/04/23 13:13:03;;;;;;;9.40;8.90;;;20.90;1.00;;;;;;2609824;54;20131;-69
2023/04/23 13:18:51;;;;;;;9.10;8.70;;;21.40;1.00;;;;;;2613322;54;20375;-68
2023/04/23 13:24:40;;;;;;;9.70;9.30;;;20.30;1.00;;;;;;2612979;54;20165;-70
2023/04/23 13:30:28;;;;;;;9.13;8.73;;;20.70;1.00;;;;;;2613693;54;20487;-69
2023/04/23 13:36:15;;;;;;;9.90;9.40;;;19.70;1.00;;;;;;2613981;39;20517;-69
2023/04/23 13:39:27;;;;;;;10.33;9.63;;;20.10;1.00;;;;;;2613244;54;20502;-68
2023/04/23 13:41:52;;;;;;;10.40;9.80;;;19.70;1.00;;;;;;2610806;54;20720;-68
2023/04/23 13:47:40;;;;;;;10.23;9.43;;;19.90;1.00;;;;;;2608989;54;20147;-68
2023/04/23 13:53:28;;;;;;;10.40;9.67;;;19.80;1.00;;;;;;2608450;39;20625;-68
2023/04/23 13:59:16;;;;;;;10.77;10.07;;;19.80;1.00;;;;;;2610616;54;20129;-67
2023/04/23 14:05:05;;;;;;;9.30;8.70;;;20.10;1.00;;;;;;2610172;54;20146;-68
2023/04/23 14:10:53;;;;;;;10.40;9.70;;;19.90;1.00;;;;;;2609568;54;20504;-67
2023/04/23 14:16:40;;;;;;;10.80;10.20;;;19.70;1.00;;;;;;2609618;54;20150;-68
2023/04/23 14:22:29;;;;;;;9.17;8.67;;;19.30;1.00;;;;;;2610338;39;20548;-67
2023/04/23 14:39:12;;;;;;;11.13;10.33;;;19.00;1.00;;;;;;2609321;54;20487;-68
2023/04/23 14:45:01;;;;;;;8.00;7.50;;;19.10;1.00;;;;;;2609704;54;20416;-68
2023/04/23 14:50:48;;;;;;;9.00;8.40;;;19.00;1.00;;;;;;2608465;54;20525;-69
2023/04/23 14:56:36;;;;;;;8.63;8.13;;;19.30;1.00;;;;;;2609094;54;20142;-69
2023/04/23 15:02:24;;;;;;;14.53;13.57;;;19.10;1.00;;;;;;2609089;54;20406;-68
2023/04/23 15:11:36;;;;;;;8.83;8.33;;;18.40;1.00;;;;;;2610587;54;20376;-68
2023/04/23 15:17:24;;;;;;;9.23;8.83;;;18.40;1.00;;;;;;2610254;54;20403;-68
2023/04/23 15:23:12;;;;;;;8.77;8.37;;;18.30;1.00;;;;;;2612296;46;20219;-68
2023/04/23 15:28:59;;;;;;;8.83;8.43;;;18.30;1.00;;;;;;2610138;54;20138;-68
2023/04/23 15:34:47;;;;;;;9.60;9.10;;;18.00;1.00;;;;;;2607909;54;20220;-68
2023/04/23 15:43:57;;;;;;;10.17;9.40;;;17.40;4.00;;;;;;2611778;54;21297;-68
2023/04/23 15:49:45;;;;;;;9.20;8.80;;;17.20;7.30;;;;;;2609876;39;20769;-68
2023/04/23 15:55:33;;;;;;;9.80;9.27;;;17.10;7.40;;;;;;2610151;54;20242;-67
2023/04/23 16:01:21;;;;;;;6.10;5.60;;;16.60;10.70;;;;;;2610503;54;20285;-68
2023/04/23 16:07:09;;;;;;;4.60;4.27;;;15.50;35.90;;;;;;2610305;54;20131;-68
2023/04/23 16:12:57;;;;;;;5.40;5.00;;;15.40;54.50;;;;;;2610362;54;20523;-68
2023/04/23 16:18:45;;;;;;;7.77;4.73;;;15.40;54.70;;;;;;2611269;54;20439;-69
2023/04/23 16:24:32;;;;;;;5.07;4.63;;;15.20;58.60;;;;;;2611993;54;20134;-67
2023/04/23 16:27:35;;;;;;;4.93;4.63;;;15.20;65.60;;;;;;2610759;54;20492;-68
2023/04/23 16:30:01;;;;;;;4.30;4.00;;;15.00;80.40;;;;;;2609216;54;20162;-68
2023/04/23 16:35:49;;;;;;;3.67;3.47;;;14.70;99.90;;;;;;2614097;54;20115;-67
2023/04/23 16:41:36;;;;;;;5.33;3.27;;;13.90;99.90;;;;;;2613841;54;20750;-68
2023/04/23 16:47:24;;;;;;;3.37;3.07;;;13.40;99.90;;;;;;2614424;54;20155;-69
2023/04/23 16:53:12;;;;;;;4.37;3.97;;;13.20;99.90;;;;;;2610723;54;20134;-68
2023/04/23 16:58:59;;;;;;;5.13;4.63;;;13.00;99.90;;;;;;2609578;54;21050;-68
2023/04/23 17:04:47;;;;;;;5.70;3.97;;;12.80;99.90;;;;;;2611961;39;20535;-68
2023/04/23 17:10:35;;;;;;;5.67;4.40;;;12.80;99.90;;;;;;2613432;54;20137;-68
2023/04/23 17:16:26;;;;;;;8.40;5.00;;;12.70;99.90;;;;;;2611999;54;20175;-68
2023/04/23 17:22:14;;;;;;;6.43;4.40;;;12.60;99.90;;;;;;2611100;54;20518;-69
2023/04/23 17:28:02;;;;;;;8.53;4.40;;;12.50;99.90;;;;;;2612143;39;20209;-68
2023/04/23 17:33:52;;;;;;;6.70;4.53;;;12.30;99.90;;;;;;2611032;54;20721;-68
2023/04/23 17:44:01;;;;;;;5.90;5.30;;;12.10;99.90;;;;;;2611380;54;20375;-69
2023/04/23 17:49:48;;;;;;;7.43;5.43;;;11.90;99.90;;;;;;2608458;54;21004;-69
2023/04/23 17:55:36;;;;;;;6.20;5.60;;;12.00;99.90;;;;;;2612439;54;20157;-69
2023/04/23 18:01:24;;;;;;;6.67;5.43;;;11.90;99.90;;;;;;2612146;54;20158;-68
2023/04/23 18:07:11;;;;;;;7.80;6.37;;;12.00;99.90;;;;;;2614749;31;20664;-69
2023/04/23 18:13:04;;;;;;;7.20;6.23;;;11.90;99.90;;;;;;2613055;54;20138;-68
2023/04/23 18:18:51;;;;;;;10.73;5.77;;;11.90;99.90;;;;;;2611477;54;20362;-69
2023/04/23 18:24:39;;;;;;;6.40;5.80;;;11.90;99.90;;;;;;2611940;54;20159;-69
2023/04/23 18:30:27;;;;;;;6.83;6.13;;;11.90;99.90;;;;;;2612065;54;20134;-68
2023/04/23 18:36:22;;;;;;;5.20;4.70;;;11.80;99.90;;;;;;2609715;54;20427;-68
2023/04/23 18:39:28;;;;;;;5.17;4.70;;;11.80;99.90;;;;;;2609189;47;20446;-68
2023/04/23 18:41:54;;;;;;;6.53;5.50;;;11.90;99.90;;;;;;2612397;54;20415;-68
2023/04/23 18:54:27;;;;;;;5.67;5.13;;;11.90;99.90;;;;;;2610361;54;20430;-68
2023/04/23 19:00:14;;;;;;;5.10;4.10;;;12.00;99.90;;;;;;2611421;54;20139;-68
2023/04/23 19:06:06;;;;;;;6.13;4.40;;;12.10;99.90;;;;;;2612848;54;20364;-69
2023/04/23 19:11:53;;;;;;;5.20;4.50;;;12.00;99.90;;;;;;2613186;54;20379;-70
2023/04/23 19:17:41;;;;;;;5.20;4.70;;;12.00;99.90;;;;;;2612953;39;20793;-68
2023/04/23 19:23:28;;;;;;;3.77;3.07;;;12.20;99.90;;;;;;2612933;54;20149;-69
2023/04/23 19:29:15;;;;;;;5.00;4.00;;;12.30;99.90;;;;;;2614199;54;20255;-69
2023/04/23 19:35:04;;;;;;;3.97;3.57;;;12.40;99.90;;;;;;2613188;54;20122;-68
2023/04/23 19:44:14;;;;;;;3.47;2.30;;;12.40;99.90;;;;;;2613189;54;20990;-67
2023/04/23 19:50:02;;;;;;;3.90;3.17;;;12.30;99.90;;;;;;2612909;54;20147;-68
2023/04/23 19:55:49;;;;;;;4.10;3.07;;;12.20;99.90;;;;;;2613004;54;20153;-70
2023/04/23 20:01:37;;;;;;;3.00;2.70;;;12.10;99.90;;;;;;2612168;54;20129;-69
2023/04/23 20:07:25;;;;;;;2.70;2.23;;;12.20;99.90;;;;;;2613076;54;20147;-67
2023/04/23 20:13:13;;;;;;;2.60;2.40;;;12.40;99.90;;;;;;2614042;46;20184;-68
2023/04/23 20:19:03;;;;;;;2.83;2.40;;;12.40;99.90;;;;;;2609262;54;20150;-69
2023/04/23 20:24:51;;;;;;;4.23;2.37;;;12.40;99.90;;;;;;2612970;54;20423;-69
2023/04/23 20:30:39;;;;;;;3.77;2.10;;;12.40;99.90;;;;;;2610814;54;20415;-68
2023/04/23 20:36:28;;;;;;;3.90;2.13;;;12.20;99.90;;;;;;2611377;54;20217;-69
2023/04/23 20:42:27;;;;;;;1.77;1.53;;;12.10;99.90;;;;;;2610257;54;20391;-68
2023/04/23 20:48:15;;;;;;;2.60;2.30;;;12.10;99.90;;;;;;2608657;54;20378;-68
2023/04/23 20:54:03;;;;;;;2.30;2.07;;;12.20;99.90;;;;;;2608759;54;20404;-68
2023/04/23 20:59:50;;;;;;;2.30;2.20;;;12.10;99.90;;;;;;2608930;54;20491;-69
2023/04/23 21:05:39;;;;;;;2.37;2.17;;;12.20;99.90;;;;;;2608950;39;20325;-69
2023/04/23 21:11:26;;;;;;;2.17;2.07;;;12.20;99.90;;;;;;2610771;54;20444;-69
2023/04/23 21:17:14;;;;;;;2.60;2.40;;;12.20;99.90;;;;;;2612685;54;20242;-69
2023/04/23 21:23:02;;;;;;;2.33;2.10;;;12.20;99.90;;;;;;2613986;54;20504;-69
2023/04/23 21:28:50;;;;;;;1.97;1.87;;;12.10;99.90;;;;;;2613491;54;21130;-68
2023/04/23 21:34:38;;;;;;;1.80;1.70;;;12.10;99.90;;;;;;2611114;54;20118;-69
2023/04/23 21:44:15;;;;;;;2.00;1.80;;;11.90;99.90;;;;;;2608157;54;20367;-67
2023/04/23 21:50:04;;;;;;;1.80;1.40;;;11.60;99.90;;;;;;2608448;54;20394;-69
2023/04/23 21:55:51;;;;;;;1.70;1.37;;;11.60;99.90;;;;;;2608473;54;20415;-68
2023/04/23 22:01:39;;;;;;;1.80;1.67;;;11.50;99.90;;;;;;2608385;54;20166;-68
2023/04/23 22:07:28;;;;;;;1.80;1.53;;;11.70;99.90;;;;;;2609082;39;20749;-68
2023/04/23 22:13:16;;;;;;;1.80;1.70;;;11.80;99.90;;;;;;2610098;54;21049;-68
2023/04/23 22:19:04;;;;;;;2.23;2.03;;;11.80;99.90;;;;;;2609236;54;20965;-68
2023/04/23 22:24:52;;;;;;;2.20;2.00;;;11.70;99.90;;;;;;2608385;54;20666;-68
2023/04/23 22:27:55;;;;;;;2.40;2.20;;;11.70;99.90;;;;;;2609752;54;20423;-68
2023/04/23 22:30:21;;;;;;;2.30;2.10;;;11.70;99.90;;;;;;2610328;39;20282;-68
2023/04/23 22:36:08;;;;;;;3.00;2.20;;;11.70;99.90;;;;;;2610620;54;20263;-68
2023/04/23 22:45:18;;;;;;;2.80;2.33;;;11.60;99.90;;;;;;2609099;54;20439;-67
2023/04/23 22:51:06;;;;;;;2.50;2.30;;;11.70;99.90;;;;;;2609586;39;20691;-67
2023/04/23 22:56:54;;;;;;;2.60;2.40;;;11.70;99.90;;;;;;2609936;54;20121;-68
2023/04/23 23:02:41;;;;;;;2.40;2.30;;;11.70;99.90;;;;;;2610043;54;20170;-68
2023/04/23 23:08:28;;;;;;;2.60;2.40;;;11.70;99.90;;;;;;2610878;54;20154;-69
2023/04/23 23:14:17;;;;;;;2.90;2.70;;;11.60;99.90;;;;;;2614126;54;20135;-68
2023/04/23 23:20:07;;;;;;;3.10;2.80;;;11.70;99.90;;;;;;2614080;54;20378;-68
2023/04/23 23:25:55;;;;;;;2.80;2.60;;;11.60;99.90;;;;;;2613107;54;20362;-67
2023/04/23 23:31:43;;;;;;;3.17;2.97;;;11.60;99.90;;;;;;2609636;54;20463;-68
2023/04/23 23:37:31;;;;;;;4.80;2.83;;;11.40;99.90;;;;;;2608509;54;20134;-68
2023/04/23 23:40:44;;;;;;;2.70;2.50;;;11.40;99.90;;;;;;2610743;54;20403;-68
2023/04/23 23:43:09;;;;;;;3.37;3.07;;;11.40;99.90;;;;;;2610477;39;20514;-67
2023/04/23 23:48:57;;;;;;;3.20;2.90;;;11.60;99.90;;;;;;2610036;39;20210;-68
2023/04/23 23:54:45;;;;;;;2.83;2.63;;;11.60;99.90;;;;;;2609672;54;20126;-68
